sensor_id;sensor_type;location;lat;lon;timestamp;P1;durP1;ratioP1;P2;durP2;ratioP2
828;SDS011;396;52.558;13.188;2023-04-03T00:01:26;6.70;;;1.00;;
828;SDS011;396;52.558;13.188;2023-04-03T00:03:53;4.87;;;0.93;;
828;SDS011;396;52.558;13.188;2023-04-03T00:06:21;4.83;;;0.90;;
828;SDS011;396;52.558;13.188;2023-04-03T00:08:47;10.23;;;2.13;;
828;SDS011;396;52.558;13.188;2023-04-03T00:11:14;8.17;;;1.40;;
828;SDS011;396;52.558;13.188;2023-04-03T00:13:41;6.23;;;0.83;;
828;SDS011;396;52.558;13.188;2023-04-03T00:16:09;4.90;;;1.00;;
828;SDS011;396;52.558;13.188;2023-04-03T00:18:38;5.27;;;1.20;;
828;SDS011;396;52.558;13.188;2023-04-03T00:21:05;8.00;;;1.73;;
828;SDS011;396;52.558;13.188;2023-04-03T00:23:33;10.73;;;2.10;;
828;SDS011;396;52.558;13.188;2023-04-03T00:26:00;6.87;;;1.90;;
828;SDS011;396;52.558;13.188;2023-04-03T00:28:27;9.03;;;2.50;;
828;SDS011;396;52.558;13.188;2023-04-03T00:30:53;9.30;;;1.80;;
828;SDS011;396;52.558;13.188;2023-04-03T00:33:20;6.10;;;1.40;;
828;SDS011;396;52.558;13.188;2023-04-03T00:35:48;9.43;;;2.57;;
828;SDS011;396;52.558;13.188;2023-04-03T00:38:15;7.07;;;1.47;;
828;SDS011;396;52.558;13.188;2023-04-03T00:40:44;9.00;;;2.17;;
828;SDS011;396;52.558;13.188;2023-04-03T00:43:12;5.40;;;1.20;;
828;SDS011;396;52.558;13.188;2023-04-03T00:45:40;7.00;;;1.87;;
828;SDS011;396;52.558;13.188;2023-04-03T00:48:10;8.00;;;1.60;;
828;SDS011;396;52.558;13.188;2023-04-03T00:50:40;6.97;;;1.60;;
828;SDS011;396;52.558;13.188;2023-04-03T00:53:11;11.30;;;1.37;;
828;SDS011;396;52.558;13.188;2023-04-03T00:55:42;6.53;;;1.40;;
828;SDS011;396;52.558;13.188;2023-04-03T00:58:10;5.67;;;1.33;;
828;SDS011;396;52.558;13.188;2023-04-03T01:00:40;5.13;;;0.80;;
828;SDS011;396;52.558;13.188;2023-04-03T01:03:12;6.33;;;1.07;;
828;SDS011;396;52.558;13.188;2023-04-03T01:05:39;7.80;;;1.03;;
828;SDS011;396;52.558;13.188;2023-04-03T01:08:06;6.83;;;1.20;;
828;SDS011;396;52.558;13.188;2023-04-03T01:10:35;5.00;;;0.93;;
828;SDS011;396;52.558;13.188;2023-04-03T01:13:01;4.87;;;0.73;;
828;SDS011;396;52.558;13.188;2023-04-03T01:15:44;6.00;;;1.00;;
828;SDS011;396;52.558;13.188;2023-04-03T01:18:10;9.77;;;1.30;;
828;SDS011;396;52.558;13.188;2023-04-03T01:23:58;5.03;;;0.90;;
828;SDS011;396;52.558;13.188;2023-04-03T01:26:35;7.00;;;1.00;;
828;SDS011;396;52.558;13.188;2023-04-03T01:29:02;4.63;;;0.83;;
828;SDS011;396;52.558;13.188;2023-04-03T01:31:31;5.20;;;0.87;;
828;SDS011;396;52.558;13.188;2023-04-03T01:34:09;8.80;;;1.77;;
828;SDS011;396;52.558;13.188;2023-04-03T01:36:36;7.80;;;1.60;;
828;SDS011;396;52.558;13.188;2023-04-03T01:39:03;5.73;;;1.50;;
828;SDS011;396;52.558;13.188;2023-04-03T01:41:29;7.37;;;1.83;;
828;SDS011;396;52.558;13.188;2023-04-03T01:43:56;8.63;;;1.47;;
828;SDS011;396;52.558;13.188;2023-04-03T01:46:23;5.83;;;1.40;;
828;SDS011;396;52.558;13.188;2023-04-03T01:48:51;8.37;;;1.97;;
828;SDS011;396;52.558;13.188;2023-04-03T01:51:17;7.53;;;1.80;;
828;SDS011;396;52.558;13.188;2023-04-03T01:53:44;8.07;;;2.00;;
828;SDS011;396;52.558;13.188;2023-04-03T01:56:10;7.67;;;1.80;;
828;SDS011;396;52.558;13.188;2023-04-03T01:58:37;6.70;;;2.20;;
828;SDS011;396;52.558;13.188;2023-04-03T02:01:04;6.93;;;1.90;;
828;SDS011;396;52.558;13.188;2023-04-03T02:03:31;15.03;;;2.17;;
828;SDS011;396;52.558;13.188;2023-04-03T02:05:59;8.83;;;2.20;;
828;SDS011;396;52.558;13.188;2023-04-03T02:08:27;7.03;;;2.50;;
828;SDS011;396;52.558;13.188;2023-04-03T02:10:53;9.00;;;2.00;;
828;SDS011;396;52.558;13.188;2023-04-03T02:13:20;8.40;;;2.17;;
828;SDS011;396;52.558;13.188;2023-04-03T02:15:47;7.40;;;2.50;;
828;SDS011;396;52.558;13.188;2023-04-03T02:18:13;10.10;;;1.73;;
828;SDS011;396;52.558;13.188;2023-04-03T02:20:41;8.87;;;1.90;;
828;SDS011;396;52.558;13.188;2023-04-03T02:23:09;5.87;;;1.77;;
828;SDS011;396;52.558;13.188;2023-04-03T02:25:36;6.57;;;1.40;;
828;SDS011;396;52.558;13.188;2023-04-03T02:28:02;7.70;;;1.77;;
828;SDS011;396;52.558;13.188;2023-04-03T02:30:29;5.40;;;1.23;;
828;SDS011;396;52.558;13.188;2023-04-03T02:32:55;6.23;;;1.13;;
828;SDS011;396;52.558;13.188;2023-04-03T02:35:22;8.73;;;1.30;;
828;SDS011;396;52.558;13.188;2023-04-03T02:37:49;7.10;;;1.37;;
828;SDS011;396;52.558;13.188;2023-04-03T02:40:17;6.60;;;1.47;;
828;SDS011;396;52.558;13.188;2023-04-03T02:42:44;5.43;;;0.90;;
828;SDS011;396;52.558;13.188;2023-04-03T02:45:11;7.30;;;1.60;;
828;SDS011;396;52.558;13.188;2023-04-03T02:47:37;6.30;;;1.27;;
828;SDS011;396;52.558;13.188;2023-04-03T02:50:04;5.70;;;1.20;;
828;SDS011;396;52.558;13.188;2023-04-03T02:52:33;11.27;;;1.80;;
828;SDS011;396;52.558;13.188;2023-04-03T02:55:00;6.20;;;1.53;;
828;SDS011;396;52.558;13.188;2023-04-03T02:57:28;6.83;;;1.23;;
828;SDS011;396;52.558;13.188;2023-04-03T02:59:54;9.47;;;1.70;;
828;SDS011;396;52.558;13.188;2023-04-03T03:02:21;7.10;;;1.53;;
828;SDS011;396;52.558;13.188;2023-04-03T03:04:47;11.70;;;2.10;;
828;SDS011;396;52.558;13.188;2023-04-03T03:07:14;6.53;;;1.93;;
828;SDS011;396;52.558;13.188;2023-04-03T03:09:41;9.80;;;1.73;;
828;SDS011;396;52.558;13.188;2023-04-03T03:12:07;5.67;;;1.10;;
828;SDS011;396;52.558;13.188;2023-04-03T03:14:35;6.80;;;1.20;;
828;SDS011;396;52.558;13.188;2023-04-03T03:17:02;12.03;;;1.90;;
828;SDS011;396;52.558;13.188;2023-04-03T03:19:28;6.50;;;1.67;;
828;SDS011;396;52.558;13.188;2023-04-03T03:21:55;7.00;;;1.40;;
828;SDS011;396;52.558;13.188;2023-04-03T03:24:22;6.63;;;1.40;;
828;SDS011;396;52.558;13.188;2023-04-03T03:26:48;6.90;;;1.50;;
828;SDS011;396;52.558;13.188;2023-04-03T03:29:15;6.40;;;1.30;;
828;SDS011;396;52.558;13.188;2023-04-03T03:31:43;6.37;;;1.40;;
828;SDS011;396;52.558;13.188;2023-04-03T03:34:09;5.73;;;1.27;;
828;SDS011;396;52.558;13.188;2023-04-03T03:36:36;6.83;;;1.10;;
828;SDS011;396;52.558;13.188;2023-04-03T03:39:03;4.40;;;0.50;;
828;SDS011;396;52.558;13.188;2023-04-03T03:41:30;5.70;;;1.07;;
828;SDS011;396;52.558;13.188;2023-04-03T03:43:56;7.10;;;1.10;;
828;SDS011;396;52.558;13.188;2023-04-03T03:46:23;5.20;;;1.03;;
828;SDS011;396;52.558;13.188;2023-04-03T03:48:51;5.77;;;1.50;;
828;SDS011;396;52.558;13.188;2023-04-03T03:51:18;7.97;;;1.07;;
828;SDS011;396;52.558;13.188;2023-04-03T03:53:44;11.37;;;1.60;;
828;SDS011;396;52.558;13.188;2023-04-03T03:56:11;5.17;;;0.73;;
828;SDS011;396;52.558;13.188;2023-04-03T03:58:37;6.33;;;1.73;;
828;SDS011;396;52.558;13.188;2023-04-03T04:01:04;6.27;;;1.47;;
828;SDS011;396;52.558;13.188;2023-04-03T04:03:32;4.93;;;0.80;;
828;SDS011;396;52.558;13.188;2023-04-03T04:06:01;4.93;;;0.80;;
828;SDS011;396;52.558;13.188;2023-04-03T04:08:27;4.97;;;0.80;;
828;SDS011;396;52.558;13.188;2023-04-03T04:10:54;5.50;;;1.17;;
828;SDS011;396;52.558;13.188;2023-04-03T04:13:20;12.07;;;1.40;;
828;SDS011;396;52.558;13.188;2023-04-03T04:15:47;4.90;;;1.10;;
828;SDS011;396;52.558;13.188;2023-04-03T04:18:14;4.83;;;0.80;;
828;SDS011;396;52.558;13.188;2023-04-03T04:20:40;11.37;;;1.23;;
828;SDS011;396;52.558;13.188;2023-04-03T04:23:08;4.93;;;0.93;;
828;SDS011;396;52.558;13.188;2023-04-03T04:25:35;4.63;;;0.83;;
828;SDS011;396;52.558;13.188;2023-04-03T04:28:02;6.40;;;0.63;;
828;SDS011;396;52.558;13.188;2023-04-03T04:30:28;4.60;;;0.80;;
828;SDS011;396;52.558;13.188;2023-04-03T04:32:55;5.13;;;0.77;;
828;SDS011;396;52.558;13.188;2023-04-03T04:35:21;6.73;;;1.00;;
828;SDS011;396;52.558;13.188;2023-04-03T04:37:48;5.00;;;0.87;;
828;SDS011;396;52.558;13.188;2023-04-03T04:40:16;5.30;;;0.97;;
828;SDS011;396;52.558;13.188;2023-04-03T04:42:43;4.70;;;0.80;;
828;SDS011;396;52.558;13.188;2023-04-03T04:45:10;6.53;;;1.03;;
828;SDS011;396;52.558;13.188;2023-04-03T04:47:36;8.73;;;1.70;;
828;SDS011;396;52.558;13.188;2023-04-03T04:50:03;6.80;;;0.93;;
828;SDS011;396;52.558;13.188;2023-04-03T04:52:30;7.37;;;1.40;;
828;SDS011;396;52.558;13.188;2023-04-03T04:54:57;6.30;;;1.10;;
828;SDS011;396;52.558;13.188;2023-04-03T04:57:25;6.90;;;0.87;;
828;SDS011;396;52.558;13.188;2023-04-03T04:59:51;7.60;;;1.27;;
828;SDS011;396;52.558;13.188;2023-04-03T05:02:18;10.57;;;1.20;;
828;SDS011;396;52.558;13.188;2023-04-03T05:04:44;6.13;;;1.67;;
828;SDS011;396;52.558;13.188;2023-04-03T05:07:11;5.23;;;0.90;;
828;SDS011;396;52.558;13.188;2023-04-03T05:09:38;5.17;;;1.10;;
828;SDS011;396;52.558;13.188;2023-04-03T05:12:07;5.10;;;0.90;;
828;SDS011;396;52.558;13.188;2023-04-03T05:14:35;4.50;;;0.90;;
828;SDS011;396;52.558;13.188;2023-04-03T05:17:01;5.30;;;0.77;;
828;SDS011;396;52.558;13.188;2023-04-03T05:19:28;5.10;;;0.80;;
828;SDS011;396;52.558;13.188;2023-04-03T05:21:54;11.00;;;1.43;;
828;SDS011;396;52.558;13.188;2023-04-03T05:24:21;8.23;;;1.00;;
828;SDS011;396;52.558;13.188;2023-04-03T05:26:48;16.33;;;1.97;;
828;SDS011;396;52.558;13.188;2023-04-03T05:29:14;5.10;;;1.00;;
828;SDS011;396;52.558;13.188;2023-04-03T05:31:42;5.33;;;0.90;;
828;SDS011;396;52.558;13.188;2023-04-03T05:34:09;7.83;;;0.80;;
828;SDS011;396;52.558;13.188;2023-04-03T05:36:36;8.13;;;0.80;;
828;SDS011;396;52.558;13.188;2023-04-03T05:39:02;5.17;;;1.03;;
828;SDS011;396;52.558;13.188;2023-04-03T05:41:29;6.87;;;1.43;;
828;SDS011;396;52.558;13.188;2023-04-03T05:43:55;6.80;;;0.93;;
828;SDS011;396;52.558;13.188;2023-04-03T05:46:22;7.80;;;1.60;;
828;SDS011;396;52.558;13.188;2023-04-03T05:48:50;6.50;;;1.20;;
828;SDS011;396;52.558;13.188;2023-04-03T05:51:17;7.80;;;1.60;;
828;SDS011;396;52.558;13.188;2023-04-03T05:53:45;6.77;;;1.70;;
828;SDS011;396;52.558;13.188;2023-04-03T05:56:13;7.47;;;1.23;;
828;SDS011;396;52.558;13.188;2023-04-03T05:58:40;6.63;;;1.67;;
828;SDS011;396;52.558;13.188;2023-04-03T06:01:07;13.77;;;1.10;;
828;SDS011;396;52.558;13.188;2023-04-03T06:03:34;7.60;;;2.17;;
828;SDS011;396;52.558;13.188;2023-04-03T06:06:03;5.43;;;1.13;;
828;SDS011;396;52.558;13.188;2023-04-03T06:08:30;6.60;;;1.20;;
828;SDS011;396;52.558;13.188;2023-04-03T06:10:57;7.07;;;1.47;;
828;SDS011;396;52.558;13.188;2023-04-03T06:13:24;6.40;;;1.20;;
828;SDS011;396;52.558;13.188;2023-04-03T06:15:51;6.77;;;1.03;;
828;SDS011;396;52.558;13.188;2023-04-03T06:18:17;4.97;;;0.83;;
828;SDS011;396;52.558;13.188;2023-04-03T06:20:45;9.17;;;1.10;;
828;SDS011;396;52.558;13.188;2023-04-03T06:23:13;6.70;;;1.00;;
828;SDS011;396;52.558;13.188;2023-04-03T06:25:39;6.43;;;0.90;;
828;SDS011;396;52.558;13.188;2023-04-03T06:28:07;6.20;;;1.37;;
828;SDS011;396;52.558;13.188;2023-04-03T06:30:35;5.40;;;1.00;;
828;SDS011;396;52.558;13.188;2023-04-03T06:33:02;6.17;;;0.87;;
828;SDS011;396;52.558;13.188;2023-04-03T06:35:29;4.30;;;0.57;;
828;SDS011;396;52.558;13.188;2023-04-03T06:37:56;6.17;;;1.20;;
828;SDS011;396;52.558;13.188;2023-04-03T06:40:24;5.80;;;0.90;;
828;SDS011;396;52.558;13.188;2023-04-03T06:42:51;10.93;;;1.80;;
828;SDS011;396;52.558;13.188;2023-04-03T06:45:18;7.33;;;1.10;;
828;SDS011;396;52.558;13.188;2023-04-03T06:47:45;6.40;;;0.97;;
828;SDS011;396;52.558;13.188;2023-04-03T06:50:11;5.53;;;1.20;;
828;SDS011;396;52.558;13.188;2023-04-03T06:52:39;4.70;;;0.80;;
828;SDS011;396;52.558;13.188;2023-04-03T06:55:06;4.53;;;0.87;;
828;SDS011;396;52.558;13.188;2023-04-03T06:57:36;5.40;;;0.80;;
828;SDS011;396;52.558;13.188;2023-04-03T07:00:03;4.80;;;0.70;;
828;SDS011;396;52.558;13.188;2023-04-03T07:02:30;4.70;;;0.80;;
828;SDS011;396;52.558;13.188;2023-04-03T07:04:57;6.10;;;0.80;;
828;SDS011;396;52.558;13.188;2023-04-03T07:07:24;5.47;;;0.83;;
828;SDS011;396;52.558;13.188;2023-04-03T07:09:50;10.43;;;1.17;;
828;SDS011;396;52.558;13.188;2023-04-03T07:12:17;4.33;;;0.53;;
828;SDS011;396;52.558;13.188;2023-04-03T07:14:45;4.10;;;0.40;;
828;SDS011;396;52.558;13.188;2023-04-03T07:17:12;5.30;;;0.80;;
828;SDS011;396;52.558;13.188;2023-04-03T07:19:38;6.40;;;0.80;;
828;SDS011;396;52.558;13.188;2023-04-03T07:22:05;5.70;;;1.23;;
828;SDS011;396;52.558;13.188;2023-04-03T07:24:31;4.97;;;0.60;;
828;SDS011;396;52.558;13.188;2023-04-03T07:26:58;9.70;;;0.80;;
828;SDS011;396;52.558;13.188;2023-04-03T07:29:25;6.50;;;1.00;;
828;SDS011;396;52.558;13.188;2023-04-03T07:31:53;5.37;;;1.30;;
828;SDS011;396;52.558;13.188;2023-04-03T07:34:20;4.30;;;0.60;;
828;SDS011;396;52.558;13.188;2023-04-03T07:36:47;6.10;;;0.87;;
828;SDS011;396;52.558;13.188;2023-04-03T07:39:13;6.67;;;0.97;;
828;SDS011;396;52.558;13.188;2023-04-03T07:41:40;7.37;;;1.43;;
828;SDS011;396;52.558;13.188;2023-04-03T07:44:07;5.53;;;0.90;;
828;SDS011;396;52.558;13.188;2023-04-03T07:46:34;8.70;;;0.90;;
828;SDS011;396;52.558;13.188;2023-04-03T07:49:02;6.80;;;0.70;;
828;SDS011;396;52.558;13.188;2023-04-03T07:51:29;5.63;;;1.00;;
828;SDS011;396;52.558;13.188;2023-04-03T07:53:56;12.17;;;1.40;;
828;SDS011;396;52.558;13.188;2023-04-03T07:56:22;5.27;;;0.80;;
828;SDS011;396;52.558;13.188;2023-04-03T07:58:50;12.97;;;0.73;;
828;SDS011;396;52.558;13.188;2023-04-03T08:01:16;13.20;;;0.90;;
828;SDS011;396;52.558;13.188;2023-04-03T08:03:43;5.63;;;0.70;;
828;SDS011;396;52.558;13.188;2023-04-03T08:06:11;5.07;;;0.67;;
828;SDS011;396;52.558;13.188;2023-04-03T08:08:38;4.30;;;0.50;;
828;SDS011;396;52.558;13.188;2023-04-03T08:11:05;4.90;;;0.53;;
828;SDS011;396;52.558;13.188;2023-04-03T08:13:33;4.87;;;0.50;;
828;SDS011;396;52.558;13.188;2023-04-03T08:16:06;4.20;;;0.40;;
828;SDS011;396;52.558;13.188;2023-04-03T08:18:34;4.37;;;0.70;;
828;SDS011;396;52.558;13.188;2023-04-03T08:21:01;4.70;;;0.70;;
828;SDS011;396;52.558;13.188;2023-04-03T08:23:33;4.47;;;0.70;;
828;SDS011;396;52.558;13.188;2023-04-03T08:26:04;4.43;;;0.60;;
828;SDS011;396;52.558;13.188;2023-04-03T08:28:32;4.93;;;0.70;;
828;SDS011;396;52.558;13.188;2023-04-03T08:31:02;11.93;;;1.13;;
828;SDS011;396;52.558;13.188;2023-04-03T08:33:30;4.20;;;0.50;;
828;SDS011;396;52.558;13.188;2023-04-03T08:35:57;6.00;;;1.23;;
828;SDS011;396;52.558;13.188;2023-04-03T08:38:24;5.27;;;0.70;;
828;SDS011;396;52.558;13.188;2023-04-03T08:41:00;4.97;;;0.80;;
828;SDS011;396;52.558;13.188;2023-04-03T08:43:31;4.50;;;0.60;;
828;SDS011;396;52.558;13.188;2023-04-03T08:46:05;4.70;;;0.73;;
828;SDS011;396;52.558;13.188;2023-04-03T08:48:36;6.50;;;0.70;;
828;SDS011;396;52.558;13.188;2023-04-03T08:51:09;4.60;;;0.60;;
828;SDS011;396;52.558;13.188;2023-04-03T08:53:41;7.33;;;0.80;;
828;SDS011;396;52.558;13.188;2023-04-03T08:56:14;5.23;;;0.80;;
828;SDS011;396;52.558;13.188;2023-04-03T08:58:45;4.57;;;0.67;;
828;SDS011;396;52.558;13.188;2023-04-03T09:01:17;4.40;;;0.50;;
828;SDS011;396;52.558;13.188;2023-04-03T09:03:46;4.50;;;0.60;;
828;SDS011;396;52.558;13.188;2023-04-03T09:06:13;4.50;;;0.53;;
828;SDS011;396;52.558;13.188;2023-04-03T09:08:43;6.93;;;0.70;;
828;SDS011;396;52.558;13.188;2023-04-03T09:11:16;4.70;;;0.97;;
828;SDS011;396;52.558;13.188;2023-04-03T09:13:49;4.40;;;0.60;;
828;SDS011;396;52.558;13.188;2023-04-03T09:16:24;6.40;;;0.70;;
828;SDS011;396;52.558;13.188;2023-04-03T09:19:01;4.50;;;0.60;;
828;SDS011;396;52.558;13.188;2023-04-03T09:21:38;8.00;;;0.80;;
828;SDS011;396;52.558;13.188;2023-04-03T09:24:07;4.93;;;0.80;;
828;SDS011;396;52.558;13.188;2023-04-03T09:26:38;4.50;;;0.70;;
828;SDS011;396;52.558;13.188;2023-04-03T09:29:11;4.90;;;0.70;;
828;SDS011;396;52.558;13.188;2023-04-03T09:31:43;7.00;;;0.50;;
828;SDS011;396;52.558;13.188;2023-04-03T09:34:13;4.80;;;0.57;;
828;SDS011;396;52.558;13.188;2023-04-03T09:36:46;4.57;;;0.63;;
828;SDS011;396;52.558;13.188;2023-04-03T09:39:15;4.60;;;0.70;;
828;SDS011;396;52.558;13.188;2023-04-03T09:41:54;4.40;;;0.60;;
828;SDS011;396;52.558;13.188;2023-04-03T09:44:24;7.20;;;0.90;;
828;SDS011;396;52.558;13.188;2023-04-03T09:46:52;5.37;;;0.80;;
828;SDS011;396;52.558;13.188;2023-04-03T09:49:19;8.77;;;0.60;;
828;SDS011;396;52.558;13.188;2023-04-03T09:51:46;6.80;;;1.07;;
828;SDS011;396;52.558;13.188;2023-04-03T09:54:24;5.03;;;0.90;;
828;SDS011;396;52.558;13.188;2023-04-03T09:57:00;6.20;;;0.93;;
828;SDS011;396;52.558;13.188;2023-04-03T09:59:30;4.40;;;0.60;;
828;SDS011;396;52.558;13.188;2023-04-03T10:01:58;4.40;;;0.70;;
828;SDS011;396;52.558;13.188;2023-04-03T10:04:27;4.40;;;0.60;;
828;SDS011;396;52.558;13.188;2023-04-03T10:07:03;5.43;;;0.90;;
828;SDS011;396;52.558;13.188;2023-04-03T10:09:55;4.30;;;0.50;;
828;SDS011;396;52.558;13.188;2023-04-03T10:12:24;4.50;;;0.60;;
828;SDS011;396;52.558;13.188;2023-04-03T10:14:55;5.93;;;1.07;;
828;SDS011;396;52.558;13.188;2023-04-03T10:17:24;4.83;;;0.60;;
828;SDS011;396;52.558;13.188;2023-04-03T10:20:02;5.80;;;0.67;;
828;SDS011;396;52.558;13.188;2023-04-03T10:22:38;4.50;;;0.60;;
828;SDS011;396;52.558;13.188;2023-04-03T10:25:15;4.40;;;0.60;;
828;SDS011;396;52.558;13.188;2023-04-03T10:27:51;5.13;;;0.60;;
828;SDS011;396;52.558;13.188;2023-04-03T10:30:27;4.30;;;0.50;;
828;SDS011;396;52.558;13.188;2023-04-03T10:33:05;8.00;;;0.97;;
828;SDS011;396;52.558;13.188;2023-04-03T10:35:44;5.13;;;0.70;;
828;SDS011;396;52.558;13.188;2023-04-03T10:38:22;15.17;;;0.80;;
828;SDS011;396;52.558;13.188;2023-04-03T10:40:59;4.53;;;0.50;;
828;SDS011;396;52.558;13.188;2023-04-03T10:43:32;4.30;;;0.40;;
828;SDS011;396;52.558;13.188;2023-04-03T10:46:03;4.50;;;0.60;;
828;SDS011;396;52.558;13.188;2023-04-03T10:48:39;5.80;;;0.77;;
828;SDS011;396;52.558;13.188;2023-04-03T10:51:20;5.07;;;0.80;;
828;SDS011;396;52.558;13.188;2023-04-03T10:53:52;4.40;;;0.50;;
828;SDS011;396;52.558;13.188;2023-04-03T10:56:25;5.13;;;0.90;;
828;SDS011;396;52.558;13.188;2023-04-03T10:59:12;4.90;;;0.60;;
828;SDS011;396;52.558;13.188;2023-04-03T11:01:46;5.97;;;0.83;;
828;SDS011;396;52.558;13.188;2023-04-03T11:04:17;5.67;;;0.67;;
828;SDS011;396;52.558;13.188;2023-04-03T11:06:47;4.60;;;0.70;;
828;SDS011;396;52.558;13.188;2023-04-03T11:09:19;5.90;;;1.03;;
828;SDS011;396;52.558;13.188;2023-04-03T11:11:51;4.30;;;0.50;;
828;SDS011;396;52.558;13.188;2023-04-03T11:14:26;4.30;;;0.40;;
828;SDS011;396;52.558;13.188;2023-04-03T11:16:59;5.00;;;0.80;;
828;SDS011;396;52.558;13.188;2023-04-03T11:19:34;5.27;;;0.67;;
828;SDS011;396;52.558;13.188;2023-04-03T11:22:04;5.50;;;0.80;;
828;SDS011;396;52.558;13.188;2023-04-03T11:24:39;4.90;;;0.70;;
828;SDS011;396;52.558;13.188;2023-04-03T11:29:43;4.63;;;0.70;;
828;SDS011;396;52.558;13.188;2023-04-03T11:32:19;4.90;;;0.63;;
828;SDS011;396;52.558;13.188;2023-04-03T11:34:58;7.17;;;0.67;;
828;SDS011;396;52.558;13.188;2023-04-03T11:37:28;5.57;;;0.93;;
828;SDS011;396;52.558;13.188;2023-04-03T11:40:01;4.70;;;0.80;;
828;SDS011;396;52.558;13.188;2023-04-03T11:42:34;6.03;;;0.63;;
828;SDS011;396;52.558;13.188;2023-04-03T11:45:17;5.07;;;0.70;;
828;SDS011;396;52.558;13.188;2023-04-03T11:47:52;5.43;;;1.00;;
828;SDS011;396;52.558;13.188;2023-04-03T11:50:31;4.40;;;0.60;;
828;SDS011;396;52.558;13.188;2023-04-03T11:56:00;4.90;;;0.73;;
828;SDS011;396;52.558;13.188;2023-04-03T11:58:28;4.40;;;0.47;;
828;SDS011;396;52.558;13.188;2023-04-03T12:01:01;5.20;;;0.80;;
828;SDS011;396;52.558;13.188;2023-04-03T12:09:29;5.50;;;0.70;;
828;SDS011;396;52.558;13.188;2023-04-03T12:15:16;4.50;;;0.60;;
828;SDS011;396;52.558;13.188;2023-04-03T12:17:47;4.77;;;0.67;;
828;SDS011;396;52.558;13.188;2023-04-03T12:23:32;5.30;;;0.67;;
828;SDS011;396;52.558;13.188;2023-04-03T12:26:05;4.93;;;0.60;;
828;SDS011;396;52.558;13.188;2023-04-03T12:28:46;7.37;;;0.70;;
828;SDS011;396;52.558;13.188;2023-04-03T12:31:15;5.10;;;0.57;;
828;SDS011;396;52.558;13.188;2023-04-03T12:36:38;4.60;;;0.60;;
828;SDS011;396;52.558;13.188;2023-04-03T12:42:15;5.10;;;0.60;;
828;SDS011;396;52.558;13.188;2023-04-03T12:44:48;4.50;;;0.60;;
828;SDS011;396;52.558;13.188;2023-04-03T12:47:23;4.60;;;0.60;;
828;SDS011;396;52.558;13.188;2023-04-03T12:49:54;5.23;;;0.60;;
828;SDS011;396;52.558;13.188;2023-04-03T12:52:28;7.13;;;0.60;;
828;SDS011;396;52.558;13.188;2023-04-03T12:54:58;5.77;;;0.70;;
828;SDS011;396;52.558;13.188;2023-04-03T12:57:28;10.80;;;0.90;;
828;SDS011;396;52.558;13.188;2023-04-03T12:59:57;4.80;;;0.70;;
828;SDS011;396;52.558;13.188;2023-04-03T13:02:25;4.43;;;0.57;;
828;SDS011;396;52.558;13.188;2023-04-03T13:04:55;5.23;;;0.67;;
828;SDS011;396;52.558;13.188;2023-04-03T13:07:25;5.23;;;0.90;;
828;SDS011;396;52.558;13.188;2023-04-03T13:10:01;6.67;;;0.93;;
828;SDS011;396;52.558;13.188;2023-04-03T13:12:45;4.50;;;0.60;;
828;SDS011;396;52.558;13.188;2023-04-03T13:15:14;4.70;;;0.63;;
828;SDS011;396;52.558;13.188;2023-04-03T13:17:42;4.67;;;0.60;;
828;SDS011;396;52.558;13.188;2023-04-03T13:20:12;4.27;;;0.50;;
828;SDS011;396;52.558;13.188;2023-04-03T13:22:40;4.30;;;0.60;;
828;SDS011;396;52.558;13.188;2023-04-03T13:25:13;5.00;;;0.60;;
828;SDS011;396;52.558;13.188;2023-04-03T13:27:42;4.50;;;0.50;;
828;SDS011;396;52.558;13.188;2023-04-03T13:30:20;5.50;;;0.63;;
828;SDS011;396;52.558;13.188;2023-04-03T13:32:50;4.60;;;0.60;;
828;SDS011;396;52.558;13.188;2023-04-03T13:35:29;4.23;;;0.50;;
828;SDS011;396;52.558;13.188;2023-04-03T13:38:02;5.10;;;0.70;;
828;SDS011;396;52.558;13.188;2023-04-03T13:40:32;4.60;;;0.60;;
828;SDS011;396;52.558;13.188;2023-04-03T13:43:03;5.20;;;0.60;;
828;SDS011;396;52.558;13.188;2023-04-03T13:45:32;4.47;;;0.60;;
828;SDS011;396;52.558;13.188;2023-04-03T13:48:07;5.10;;;0.90;;
828;SDS011;396;52.558;13.188;2023-04-03T13:50:51;4.40;;;0.50;;
828;SDS011;396;52.558;13.188;2023-04-03T13:53:22;4.30;;;0.50;;
828;SDS011;396;52.558;13.188;2023-04-03T13:55:53;5.10;;;0.90;;
828;SDS011;396;52.558;13.188;2023-04-03T13:58:25;5.37;;;0.87;;
828;SDS011;396;52.558;13.188;2023-04-03T14:00:54;6.63;;;0.80;;
828;SDS011;396;52.558;13.188;2023-04-03T14:03:23;4.40;;;0.60;;
828;SDS011;396;52.558;13.188;2023-04-03T14:05:54;4.50;;;0.60;;
828;SDS011;396;52.558;13.188;2023-04-03T14:08:21;5.20;;;1.00;;
828;SDS011;396;52.558;13.188;2023-04-03T14:10:48;4.33;;;0.50;;
828;SDS011;396;52.558;13.188;2023-04-03T14:13:17;5.27;;;0.83;;
828;SDS011;396;52.558;13.188;2023-04-03T14:15:46;4.50;;;0.50;;
828;SDS011;396;52.558;13.188;2023-04-03T14:18:15;4.80;;;0.63;;
828;SDS011;396;52.558;13.188;2023-04-03T14:20:43;5.43;;;0.80;;
828;SDS011;396;52.558;13.188;2023-04-03T14:23:11;4.80;;;0.47;;
828;SDS011;396;52.558;13.188;2023-04-03T14:25:39;4.70;;;0.70;;
828;SDS011;396;52.558;13.188;2023-04-03T14:28:13;4.40;;;0.60;;
828;SDS011;396;52.558;13.188;2023-04-03T14:30:41;5.67;;;1.00;;
828;SDS011;396;52.558;13.188;2023-04-03T14:33:09;6.03;;;0.77;;
828;SDS011;396;52.558;13.188;2023-04-03T14:35:39;4.93;;;0.90;;
828;SDS011;396;52.558;13.188;2023-04-03T14:38:09;5.17;;;0.70;;
828;SDS011;396;52.558;13.188;2023-04-03T14:40:46;6.73;;;0.70;;
828;SDS011;396;52.558;13.188;2023-04-03T14:43:13;4.57;;;0.60;;
828;SDS011;396;52.558;13.188;2023-04-03T14:45:40;4.33;;;0.60;;
828;SDS011;396;52.558;13.188;2023-04-03T14:48:09;4.90;;;1.00;;
828;SDS011;396;52.558;13.188;2023-04-03T14:50:42;4.33;;;0.50;;
828;SDS011;396;52.558;13.188;2023-04-03T14:53:09;4.50;;;0.77;;
828;SDS011;396;52.558;13.188;2023-04-03T14:55:39;4.80;;;0.83;;
828;SDS011;396;52.558;13.188;2023-04-03T14:58:05;5.43;;;0.70;;
828;SDS011;396;52.558;13.188;2023-04-03T15:00:35;4.50;;;0.77;;
828;SDS011;396;52.558;13.188;2023-04-03T15:03:02;4.70;;;0.80;;
828;SDS011;396;52.558;13.188;2023-04-03T15:05:29;4.37;;;0.60;;
828;SDS011;396;52.558;13.188;2023-04-03T15:07:56;5.10;;;0.60;;
828;SDS011;396;52.558;13.188;2023-04-03T15:10:26;4.53;;;0.60;;
828;SDS011;396;52.558;13.188;2023-04-03T15:12:55;6.00;;;0.87;;
828;SDS011;396;52.558;13.188;2023-04-03T15:15:22;4.60;;;0.60;;
828;SDS011;396;52.558;13.188;2023-04-03T15:17:51;6.20;;;1.13;;
828;SDS011;396;52.558;13.188;2023-04-03T15:20:20;5.27;;;0.60;;
828;SDS011;396;52.558;13.188;2023-04-03T15:22:51;4.57;;;0.80;;
828;SDS011;396;52.558;13.188;2023-04-03T15:25:52;4.60;;;0.80;;
828;SDS011;396;52.558;13.188;2023-04-03T15:31:11;6.87;;;0.90;;
828;SDS011;396;52.558;13.188;2023-04-03T15:33:38;4.60;;;0.70;;
828;SDS011;396;52.558;13.188;2023-04-03T15:36:05;4.97;;;0.77;;
828;SDS011;396;52.558;13.188;2023-04-03T15:38:32;4.80;;;0.63;;
828;SDS011;396;52.558;13.188;2023-04-03T15:40:58;5.00;;;0.87;;
828;SDS011;396;52.558;13.188;2023-04-03T15:43:25;4.60;;;0.60;;
828;SDS011;396;52.558;13.188;2023-04-03T15:45:53;4.70;;;0.73;;
828;SDS011;396;52.558;13.188;2023-04-03T15:48:24;4.47;;;0.70;;
828;SDS011;396;52.558;13.188;2023-04-03T15:50:51;5.17;;;0.70;;
828;SDS011;396;52.558;13.188;2023-04-03T15:53:18;4.40;;;0.60;;
828;SDS011;396;52.558;13.188;2023-04-03T15:55:44;5.30;;;0.70;;
828;SDS011;396;52.558;13.188;2023-04-03T15:58:11;4.40;;;0.63;;
828;SDS011;396;52.558;13.188;2023-04-03T16:00:38;4.80;;;0.80;;
828;SDS011;396;52.558;13.188;2023-04-03T16:03:08;4.30;;;0.60;;
828;SDS011;396;52.558;13.188;2023-04-03T16:05:37;4.83;;;0.70;;
828;SDS011;396;52.558;13.188;2023-04-03T16:08:05;7.70;;;0.80;;
828;SDS011;396;52.558;13.188;2023-04-03T16:10:33;4.50;;;0.60;;
828;SDS011;396;52.558;13.188;2023-04-03T16:13:00;4.43;;;0.80;;